Latest Weather Observations for Port Hedland

IDW60801

Issued at 5:32 pm WST Thursday 2 July 2015 (issued every 30 minutes, with the page automatically refreshed every 10 minutes)

About weather observations | Map of weather stations | Latest weather observations for WA | Other Formats
Station Details ID: 004032 Name: PORT HEDLAND AIRPORT Lat: -20.37 Lon: 118.63 Height: 6.4 m
Data from the previous 72 hours. | See also: Recent months at Port Hedland
Date/Time
WST
Temp
°C
App
Temp
°C
Dew
Point
Rel
Hum
%
Delta-T
°C
Wind Press
QNH
hPa
Press
MSL
hPa
Rain
since 9 am
mm
Dir
 
Spd
km/h
Gust
km/h
Spd
kts
Gust
kts
02/05:30pm 24.5 23.0 9.1 37 8.3 NNW 7 9 4 5 1018.5 - 0.0
02/05:00pm 26.4 23.4 7.6 30 10.0 N 13 17 7 9 1018.4 - 0.0
02/04:30pm 27.9 24.4 5.5 24 11.6 N 13 17 7 9 1018.3 - 0.0
02/04:00pm 28.3 24.0 5.2 23 11.9 N 17 20 9 11 1018.1 - 0.0
02/03:30pm 28.9 23.7 2.7 18 13.0 N 19 22 10 12 1018.0 - 0.0
02/03:00pm 29.6 24.5 3.1 18 13.3 N 19 20 10 11 1018.1 1018.1 0.0
02/02:30pm 29.1 24.6 6.1 23 12.1 N 19 24 10 13 1018.1 - 0.0
02/02:00pm 29.7 24.6 2.9 18 13.4 N 19 24 10 13 1018.4 - 0.0
02/01:30pm 30.4 27.0 4.0 18 13.5 NE 11 17 6 9 1018.6 - 0.0
02/01:00pm 30.0 24.7 2.8 17 13.6 N 20 26 11 14 1019.2 - 0.0
02/12:30pm 30.1 25.0 4.1 19 13.3 NE 20 28 11 15 1019.7 - 0.0
02/12:00pm 29.6 23.7 1.9 17 13.6 ENE 22 28 12 15 1020.2 1020.2 0.0
02/11:30am 29.2 22.5 1.3 16 13.5 E 26 35 14 19 1020.8 - 0.0
02/11:00am 28.9 21.9 1.8 17 13.2 E 28 35 15 19 1021.1 - 0.0
02/10:30am 28.6 21.5 1.1 17 13.2 E 28 37 15 20 1021.4 - 0.0
02/10:00am 28.0 22.5 2.1 19 12.6 ESE 20 28 11 15 1021.7 - 0.0
02/09:30am 26.3 20.5 2.3 21 11.6 ESE 22 30 12 16 1021.8 - 0.0
02/09:00am 24.0 18.6 2.7 25 10.2 ESE 20 30 11 16 1021.7 1021.7 0.0
02/08:30am 22.0 16.6 2.7 28 9.1 ESE 20 24 11 13 1021.6 - 0.0
02/08:00am 19.7 15.8 3.6 34 7.6 ESE 13 17 7 9 1021.4 - 0.0
02/07:30am 17.5 14.5 4.3 41 6.2 ESE 9 11 5 6 1021.2 - 0.0
02/07:00am 16.1 12.3 3.7 43 5.7 SE 13 17 7 9 1020.9 - 0.0
02/06:30am 15.9 11.2 3.4 43 5.7 SE 17 20 9 11 1020.6 - 0.0
02/06:00am 14.6 11.1 3.6 47 5.0 SE 11 15 6 8 1020.4 1020.4 0.0
02/05:30am 14.7 11.1 3.1 45 5.2 SSE 11 13 6 7 1020.0 - 0.0
02/05:00am 14.4 11.5 4.4 51 4.6 SSE 9 9 5 5 1020.0 - 0.0
02/04:30am 13.9 11.3 4.3 52 4.4 SE 7 11 4 6 1019.9 - 0.0
02/04:00am 15.5 11.4 2.5 41 5.8 SSE 13 15 7 8 1019.9 - 0.0
02/03:30am 15.2 10.8 2.7 43 5.6 SSE 15 17 8 9 1019.9 - 0.0
02/03:00am 15.7 11.6 2.5 41 5.9 S 13 17 7 9 1019.8 1019.8 0.0
02/02:30am 15.8 11.8 2.7 41 5.9 S 13 15 7 8 1019.8 - 0.0
02/02:00am 15.7 11.7 3.1 43 5.7 S 13 15 7 8 1020.1 - 0.0
02/01:30am 15.8 11.9 3.3 43 5.7 S 13 17 7 9 1020.2 - 0.0
02/01:00am 15.5 12.0 3.4 44 5.5 S 11 15 6 8 1020.6 - 0.0
02/12:30am 15.8 11.5 3.0 42 5.8 S 15 17 8 9 1020.6 - 0.0
02/12:00am 16.1 12.1 3.1 41 5.9 S 13 17 7 9 1020.7 1020.7 0.0
 
Date/Time
WST
Temp
°C
App
Temp
°C
Dew
Point
Rel
Hum
%
Delta-T
°C
Wind Press
QNH
hPa
Press
MSL
hPa
Rain
since 9 am
mm
Dir
 
Spd
km/h
Gust
km/h
Spd
kts
Gust
kts
01/11:30pm 16.4 12.0 2.6 39 6.2 S 15 19 8 10 1020.7 - 0.0
01/11:00pm 16.4 12.4 2.6 39 6.2 S 13 15 7 8 1020.8 - 0.0
01/10:30pm 17.2 13.6 3.0 38 6.5 S 11 15 6 8 1020.9 - 0.0
01/10:00pm 18.2 14.2 3.0 36 7.0 S 13 15 7 8 1021.1 - 0.0
01/09:30pm 17.9 15.0 4.9 42 6.2 SSW 9 11 5 6 1021.0 - 0.0
01/09:00pm 18.7 15.6 5.6 42 6.4 SSW 11 11 6 6 1021.0 1021.0 0.0
01/08:30pm 18.6 15.5 5.7 42 6.3 SSW 11 13 6 7 1020.8 - 0.0
01/08:00pm 18.7 15.3 5.8 42 6.3 SW 13 13 7 7 1020.6 - 0.0
01/07:30pm 19.1 15.8 6.4 43 6.3 WSW 13 15 7 8 1020.4 - 0.0
01/07:00pm 19.7 16.3 5.9 40 6.8 WSW 13 13 7 7 1019.9 - 0.0
01/06:30pm 20.7 17.8 6.6 40 7.1 W 11 11 6 6 1019.7 - 0.0
01/06:00pm 21.9 19.5 7.1 38 7.6 WNW 9 11 5 6 1019.4 1019.4 0.0
01/05:30pm 24.1 21.6 6.6 32 9.0 NW 9 11 5 6 1019.1 - 0.0
01/05:00pm 26.5 22.7 3.8 23 11.3 N 13 15 7 8 1019.0 - 0.0
01/04:30pm 28.0 23.8 1.8 18 12.7 N 13 19 7 10 1018.8 - 0.0
01/04:00pm 28.4 22.4 -3.4 12 14.1 N 19 24 10 13 1018.6 - 0.0
01/03:30pm 28.9 22.3 -3.5 12 14.4 N 22 28 12 15 1018.6 - 0.0
01/03:00pm 29.1 22.7 -4.5 11 14.7 N 20 28 11 15 1018.7 1018.7 0.0
01/02:30pm 29.3 22.5 -1.9 13 14.3 N 24 30 13 16 1018.8 - 0.0
01/02:00pm 29.3 22.4 -2.4 12 14.4 N 24 30 13 16 1018.8 - 0.0
01/01:30pm 30.3 23.9 -2.0 12 14.9 ENE 22 32 12 17 1018.9 - 0.0
01/01:00pm 30.0 23.4 -2.9 11 14.9 ENE 22 30 12 16 1019.4 - 0.0
01/12:30pm 29.7 22.7 -3.3 11 14.8 NE 24 33 13 18 1019.9 - 0.0
01/12:00pm 29.7 21.8 -4.4 10 15.0 ENE 28 39 15 21 1020.4 1020.4 0.0
01/11:30am 29.4 20.9 -3.2 12 14.6 E 32 41 17 22 1020.8 - 0.0
01/11:00am 28.9 20.5 -2.6 12 14.2 E 32 41 17 22 1021.1 - 0.0
01/10:30am 27.9 19.6 -1.9 14 13.5 E 32 43 17 23 1021.6 - 0.0
01/10:00am 26.7 18.8 -1.8 15 12.9 E 30 39 16 21 1021.8 - 0.0
01/09:30am 25.1 17.2 -1.2 17 11.8 E 30 39 16 21 1022.1 - 0.0
01/09:00am 23.5 16.2 -0.2 21 10.7 ESE 28 37 15 20 1022.2 1022.2 0.0
01/08:30am 21.7 15.3 0.7 25 9.5 ESE 24 33 13 18 1021.9 - 0.0
01/08:00am 19.5 14.6 1.9 31 8.0 SE 17 24 9 13 1021.7 - 0.0
01/07:30am 17.1 12.3 2.5 37 6.6 SE 17 22 9 12 1021.5 - 0.0
01/07:00am 15.4 10.9 2.3 41 5.8 SE 15 20 8 11 1021.1 - 0.0
01/06:30am 14.7 10.3 2.5 43 5.4 SE 15 19 8 10 1020.8 - 0.0
01/06:00am 14.1 10.1 2.8 46 5.0 SE 13 15 7 8 1020.6 1020.6 0.0
01/05:30am 12.3 7.6 3.2 54 4.0 SSE 17 19 9 10 1020.3 - 0.0
01/05:00am 12.4 8.4 3.1 53 4.1 SSE 13 15 7 8 1020.1 - 0.0
01/04:30am 13.1 9.1 2.9 50 4.5 S 13 15 7 8 1020.1 - 0.0
01/04:00am 13.2 9.2 3.0 50 4.5 S 13 17 7 9 1020.0 - 0.0
01/03:30am 13.2 8.9 3.0 50 4.5 SSE 15 19 8 10 1020.0 - 0.0
01/03:00am 13.1 8.7 2.9 50 4.5 S 15 17 8 9 1020.0 1020.0 0.0
01/02:30am 13.6 9.2 2.7 47 4.8 S 15 19 8 10 1020.1 - 0.0
01/02:00am 14.2 9.4 2.4 45 5.2 S 17 19 9 10 1020.4 - 0.0
01/01:30am 14.3 9.8 2.2 44 5.3 S 15 19 8 10 1020.7 - 0.0
01/01:00am 14.9 10.7 1.9 41 5.7 S 13 17 7 9 1020.8 - 0.0
01/12:30am 15.1 10.9 1.9 41 5.8 S 13 17 7 9 1020.7 - 0.0
01/12:00am 15.6 11.0 1.4 38 6.2 S 15 17 8 9 1020.6 1020.6 0.0
 
Date/Time
WST
Temp
°C
App
Temp
°C
Dew
Point
Rel
Hum
%
Delta-T
°C
Wind Press
QNH
hPa
Press
MSL
hPa
Rain
since 9 am
mm
Dir
 
Spd
km/h
Gust
km/h
Spd
kts
Gust
kts
30/11:30pm 15.1 11.0 2.5 42 5.6 S 13 19 7 10 1020.7 - 0.0
30/11:00pm 15.8 11.9 3.5 43 5.6 S 13 17 7 9 1020.9 - 0.0
30/10:30pm 15.2 11.7 5.5 52 4.6 S 13 15 7 8 1021.0 - 0.0
30/10:00pm 15.2 12.3 6.5 56 4.2 SSW 11 13 6 7 1021.0 - 0.0
30/09:30pm 14.8 12.3 6.5 57 4.0 SSW 9 13 5 7 1020.8 - 0.0
30/09:00pm 15.1 12.2 6.6 57 4.1 SSW 11 13 6 7 1020.9 1020.9 0.0
30/08:30pm 17.1 15.1 7.3 52 4.9 SW 7 9 4 5 1020.8 - 0.0
30/08:00pm 16.3 14.0 7.5 56 4.4 WSW 9 11 5 6 1020.7 - 0.0
30/07:30pm 17.7 15.6 6.5 48 5.5 W 7 7 4 4 1020.5 - 0.0
30/07:00pm 18.7 16.9 7.9 49 5.5 WNW 7 7 4 4 1020.2 - 0.0
30/06:30pm 19.7 17.7 7.3 44 6.3 WNW 7 7 4 4 1019.9 - 0.0
30/06:00pm 20.5 18.5 7.1 42 6.8 W 7 9 4 5 1019.8 1019.8 0.0
30/05:30pm 21.9 19.4 6.5 37 7.8 N 9 11 5 6 1019.5 - 0.0
30/05:00pm 24.4 20.6 4.1 26 10.0 N 13 17 7 9 1019.3 - 0.0
30/04:30pm 25.1 20.8 3.1 24 10.7 N 15 19 8 10 1019.2 - 0.0
30/04:00pm 26.0 21.9 2.4 21 11.4 N 13 17 7 9 1019.1 - 0.0
30/03:30pm 26.7 22.1 1.7 19 12.0 N 15 19 8 10 1019.0 - 0.0
30/03:00pm 27.3 22.7 1.4 18 12.4 NNE 15 19 8 10 1019.2 1019.2 0.0
30/02:30pm 27.5 22.5 -1.5 15 13.2 NNE 15 19 8 10 1019.2 - 0.0
30/02:00pm 27.6 22.2 -1.7 14 13.3 NNE 17 22 9 12 1019.5 - 0.0
30/01:30pm 27.3 22.6 0.6 17 12.6 NNE 15 24 8 13 1019.9 - 0.0
30/01:00pm 28.3 23.7 -3.8 12 14.1 E 11 19 6 10 1020.2 - 0.0
30/12:30pm 27.7 22.2 -1.9 14 13.4 E 17 26 9 14 1020.6 - 0.0
30/12:00pm 27.2 20.4 -1.8 15 13.1 ENE 24 35 13 19 1021.2 1021.2 0.0
30/11:30am 26.8 20.0 -1.5 15 12.8 E 24 43 13 23 1021.5 - 0.0
30/11:00am 26.0 18.5 -1.7 16 12.4 E 28 35 15 19 1021.8 - 0.0
30/10:30am 24.6 17.0 -2.0 17 11.7 E 28 35 15 19 1022.0 - 0.0
30/10:00am 23.7 16.2 -1.5 18 11.1 ESE 28 37 15 20 1022.2 - 0.0
30/09:30am 22.7 15.6 -1.2 20 10.5 ESE 26 33 14 18 1022.5 - 0.0
30/09:00am 21.4 14.7 -1.1 22 9.8 ESE 24 37 13 20 1022.5 1022.5 0.0
30/08:30am 19.6 13.8 0.0 27 8.6 SE 20 32 11 17 1022.4 - 0.0
30/08:00am 16.0 11.9 2.0 39 6.2 SSE 13 15 7 8 1022.2 - 0.0
30/07:30am 12.0 8.6 1.9 50 4.3 S 9 11 5 6 1022.0 - 0.0
30/07:00am 10.1 6.7 1.7 56 3.5 S 9 11 5 6 1021.7 - 0.0
30/06:30am 10.4 6.6 1.5 54 3.7 S 11 15 6 8 1021.2 - 0.0
30/06:00am 10.2 6.0 1.5 55 3.6 SSE 13 15 7 8 1021.1 1021.1 0.0
30/05:30am 10.5 5.9 1.3 53 3.8 SSE 15 17 8 9 1020.9 - 0.0
30/05:00am 10.7 6.4 1.3 52 3.9 SSE 13 15 7 8 1020.6 - 0.0
30/04:30am 11.4 7.5 1.1 49 4.3 SSE 11 13 6 7 1020.4 - 0.0
30/04:00am 11.9 8.4 1.2 48 4.5 S 9 11 5 6 1020.6 - 0.0
30/03:30am 12.0 7.3 1.0 47 4.6 SSE 15 17 8 9 1020.6 - 0.0
30/03:00am 12.3 7.2 0.8 45 4.8 SSE 17 17 9 9 1020.5 1020.5 0.0
30/02:30am 12.8 7.2 0.2 42 5.2 SSE 19 20 10 11 1020.4 - 0.0
30/02:00am 12.7 7.9 0.4 43 5.1 SSE 15 17 8 9 1020.7 - 0.0
30/01:30am 12.8 7.7 0.9 44 5.0 SSE 17 19 9 10 1020.9 - 0.0
30/01:00am 13.1 8.0 1.0 43 5.1 SSE 17 19 9 10 1021.0 - 0.0
30/12:30am 13.4 8.3 0.8 42 5.3 SSE 17 19 9 10 1021.0 - 0.0
30/12:00am 14.4 9.3 0.8 39 5.8 SSE 17 19 9 10 1021.0 1021.0 0.0
 
Date/Time
WST
Temp
°C
App
Temp
°C
Dew
Point
Rel
Hum
%
Delta-T
°C
Wind Press
QNH
hPa
Press
MSL
hPa
Rain
since 9 am
mm
Dir
 
Spd
km/h
Gust
km/h
Spd
kts
Gust
kts
29/11:30pm 15.6 10.8 0.0 34 6.6 SSE 15 19 8 10 1021.1 - 0.0
29/11:00pm 15.0 9.9 0.7 37 6.1 SSE 17 19 9 10 1021.2 - 0.0
29/10:30pm 15.1 10.1 1.2 39 6.0 SSE 17 19 9 10 1021.1 - 0.0
29/10:00pm 15.9 11.8 2.2 39 6.1 SSE 13 15 7 8 1021.0 - 0.0
29/09:30pm 16.1 12.3 3.7 43 5.7 SSE 13 13 7 7 1021.1 - 0.0
29/09:00pm 16.8 13.5 6.3 50 5.1 SSE 13 15 7 8 1021.0 1021.0 0.0
29/08:30pm 17.0 15.4 10.2 64 3.6 S 9 13 5 7 1021.0 - 0.0
29/08:00pm 17.7 15.9 10.8 64 3.7 S 11 13 6 7 1020.9 - 0.0
29/07:30pm 17.9 16.9 11.0 64 3.7 SSW 7 9 4 5 1020.6 - 0.0
29/07:00pm 17.8 16.7 10.5 62 3.9 W 7 7 4 4 1020.4 - 0.0
29/06:30pm 18.1 16.8 11.3 64 3.7 W 9 9 5 5 1020.2 - 0.0
29/06:00pm 19.2 17.9 11.3 60 4.3 NW 9 11 5 6 1019.9 1019.9 0.0

Other Formats:

Comma delimited format used in spreadsheet applications
http://www.bom.gov.au/fwo/IDW60801/IDW60801.94312.axf

JavaScript Object Notation format (JSON) in row-major order
http://www.bom.gov.au/fwo/IDW60801/IDW60801.94312.json